In Rescue
 
Open Full Screen Window  High Contrast Mode
Wind Gusting 00 knots
04
October 29, 2020 11:51 PM CDT
Weather Information
Wind Direction
  230 °
Wind Speed
  04 kt (5 mph)
Wind Gust
  00 kt (0 mph)
Altimeter
30.10 in
Visibility
---
Temperature
-03° C
27° F
Dewpoint
-08° C
18° F
Humidity
69%
1hr Rain Fall
00.00 in.
24hr Rain Fall
00.00 in.
Sky Condition
Missing

METAR KFGN 300451Z AUTO 23004KT M03/M08 A3010 RMK AO2 PWINO

FAA Disclaimer: The data displayed is for advisory purposes only and is not to be used for flight planning or operations.
Missing Cloud Data